Susan Ann — WCY5700 — position and weather

sailwx.info

Track history (hours):
 
Tides and Currents Weather Stations Pressure Air Temp Water Temp Dewpoint Dewpoint Depression Visibility Wind Speed Wind Dir Waves Ship Positions

Susan Ann

Owner: CROSS SOUND FERRY SERVICES INC, NEW LONDON, CT. More information available from US FCC via Universal Licensing System and Coast Guard Vessel Documentation Center.

Last reported at 2015-May-24 14:34 UTC. Time now 2015-May-24 15:08 UTC.
Position N 41°09' W 072°14'.

Length 72 m; draft 4 m.

Type: Passenger vessel. MMSI: 367354350.

Date/timePositionNaut miles runAvg speedWind from/ knotsBaromVisibWave heightAir tempDewpointWater temp
2015-May-24 14:34N 41°09' W 072°14'9 8.6
2015-May-24 13:34N 41°16' W 072°08'5 5.5
2015-May-24 12:34N 41°21' W 072°06'10 9.7
2015-May-24 11:33N 41°13' W 072°11'4 4.3
2015-May-24 10:33N 41°09' W 072°14'0 0.0
2015-May-24 02:19N 41°09' W 072°14'5 6.6
2015-May-24 01:33N 41°13' W 072°10'9 8.9
2015-May-24 00:34N 41°21' W 072°06'8 7.7
2015-May-23 23:33N 41°14' W 072°09'6 6.4
2015-May-23 22:33N 41°09' W 072°14'9 8.9
2015-May-23 21:33N 41°16' W 072°07'5 5.3
2015-May-23 20:33N 41°21' W 072°06'9 9.0
2015-May-23 19:33N 41°13' W 072°10'5 5.0
2015-May-23 18:33N 41°09' W 072°14'9 9.0
2015-May-23 17:33N 41°16' W 072°07'5 5.2
2015-May-23 16:33N 41°21' W 072°06'9 9.3
2015-May-23 15:34N 41°13' W 072°10'5 4.8
2015-May-23 14:34N 41°09' W 072°14'9 9.2
2015-May-23 13:34N 41°16' W 072°06'6 5.6
2015-May-23 12:33N 41°21' W 072°06'8 8.3
2015-May-23 11:33N 41°14' W 072°09'6 5.8
2015-May-23 10:33N 41°09' W 072°14'0 0.0
2015-May-23 02:13N 41°09' W 072°14'6 9.0
2015-May-23 01:33N 41°14' W 072°10'8 7.8
2015-May-23 00:33N 41°21' W 072°06'9 8.8
2015-May-22 23:33N 41°13' W 072°10'5 5.1
2015-May-22 22:33N 41°09' W 072°14'9 9.2
2015-May-22 21:34N 41°16' W 072°07'5 5.1
2015-May-22 20:34N 41°21' W 072°06'9 9.0
2015-May-22 19:34N 41°13' W 072°10'5 5.0
2015-May-22 18:33N 41°09' W 072°14'8 8.2
2015-May-22 17:33N 41°16' W 072°08'6 5.8
2015-May-22 16:33N 41°21' W 072°06'9 9.2
2015-May-22 15:33N 41°13' W 072°11'5 4.7
2015-May-22 14:33N 41°09' W 072°14'9 8.5
2015-May-22 13:33N 41°16' W 072°07'6 5.5
2015-May-22 12:33N 41°21' W 072°06'8 8.1
2015-May-22 11:33N 41°14' W 072°09'6 6.0
2015-May-22 10:33N 41°09' W 072°14'0 0.0
2015-May-22 00:25N 41°09' W 072°14'910.0
2015-May-21 23:33N 41°16' W 072°07'6 5.5
2015-May-21 22:33N 41°21' W 072°06'9 8.6
2015-May-21 21:34N 41°13' W 072°10'5 5.3
2015-May-21 20:33N 41°09' W 072°14'9 9.2
2015-May-21 19:33N 41°16' W 072°07'5 5.0
2015-May-21 18:33N 41°21' W 072°06'9 8.7
2015-May-21 17:34N 41°13' W 072°10'5 5.3
2015-May-21 16:33N 41°09' W 072°14'8 8.4
2015-May-21 15:33N 41°16' W 072°08'6 5.6
2015-May-21 14:33N 41°21' W 072°06'9 8.8
2015-May-21 13:34N 41°13' W 072°10'5 5.3
2015-May-21 12:34N 41°09' W 072°14'8 8.3
2015-May-21 11:33N 41°16' W 072°08'6 5.7
2015-May-21 10:33N 41°21' W 072°06'0 0.0
2015-May-21 09:33N 41°21' W 072°06'0 0.0
2015-May-21 00:21N 41°21' W 072°06'810.6
2015-May-20 23:34N 41°14' W 072°10'6 5.6
2015-May-20 22:33N 41°09' W 072°14'9 8.9
2015-May-20 21:33N 41°16' W 072°07'5 5.4
2015-May-20 20:34N 41°21' W 072°06'10 9.6
2015-May-20 19:33N 41°13' W 072°11'4 4.4
2015-May-20 18:33N 41°09' W 072°14'8 7.7
2015-May-20 17:33N 41°15' W 072°08'6 6.3
2015-May-20 16:34N 41°21' W 072°06'9 9.0
2015-May-20 15:33N 41°13' W 072°11'5 4.9
2015-May-20 14:33N 41°09' W 072°14'8 7.8
2015-May-20 13:33N 41°15' W 072°08'6 6.2
2015-May-20 12:33N 41°21' W 072°06'9 8.7
2015-May-20 11:34N 41°13' W 072°10'5 5.3
2015-May-20 10:33N 41°09' W 072°14'0 0.0
2015-May-20 01:04N 41°09' W 072°14'2 3.0
2015-May-20 00:34N 41°11' W 072°14'1212.3
2015-May-19 23:34N 41°21' W 072°05'0 0.2
2015-May-19 22:33N 41°21' W 072°06'9 8.7
2015-May-19 21:34N 41°13' W 072°10'5 5.4
2015-May-19 20:34N 41°09' W 072°14'8 8.4
2015-May-19 19:33N 41°16' W 072°07'6 5.8
2015-May-19 18:33N 41°21' W 072°06'8 8.4
2015-May-19 17:34N 41°14' W 072°09'6 5.7
2015-May-19 16:33N 41°09' W 072°14'9 9.0
2015-May-19 15:33N 41°16' W 072°07'5 5.2
2015-May-19 14:33N 41°21' W 072°06'9 9.2
2015-May-19 13:33N 41°13' W 072°10'5 4.8
2015-May-19 12:34N 41°09' W 072°14'8 8.2
2015-May-19 11:34N 41°15' W 072°07'6 6.0
2015-May-19 10:33N 41°21' W 072°06'3 0.3
2015-May-19 00:34N 41°18' W 072°05'1111.3
2015-May-18 23:33N 41°09' W 072°14'0 0.0
2015-May-18 22:34N 41°09' W 072°14'8 8.4
2015-May-18 21:33N 41°16' W 072°08'6 5.6
2015-May-18 20:33N 41°21' W 072°06'8 8.5
2015-May-18 19:33N 41°13' W 072°10'6 5.5
2015-May-18 18:33N 41°09' W 072°14'9 9.4
2015-May-18 17:34N 41°17' W 072°07'5 4.8
2015-May-18 16:34N 41°21' W 072°06'8 8.5
2015-May-18 15:34N 41°14' W 072°10'5 5.4
2015-May-18 14:34N 41°09' W 072°14'8 8.2
2015-May-18 13:34N 41°16' W 072°08'6 5.8
2015-May-18 12:33N 41°21' W 072°06'10 9.8
2015-May-18 11:33N 41°12' W 072°11'4 4.2
2015-May-18 10:33N 41°09' W 072°14'0 0.0
2015-May-18 02:15N 41°09' W 072°14'5 8.0
2015-May-18 01:34N 41°14' W 072°11'8 8.4
2015-May-18 00:33N 41°21' W 072°06'9 8.7
2015-May-17 23:34N 41°13' W 072°10'5 5.3
2015-May-17 22:33N 41°09' W 072°14'8 7.6
2015-May-17 21:34N 41°15' W 072°08'6 6.3
2015-May-17 20:33N 41°21' W 072°06'9 8.6
2015-May-17 19:34N 41°13' W 072°10'5 5.5
2015-May-17 18:33N 41°09' W 072°14'9 8.5
2015-May-17 17:33N 41°16' W 072°07'6 5.6
2015-May-17 16:33N 41°21' W 072°06'9 8.7
2015-May-17 15:33N 41°13' W 072°10'5 5.4
2015-May-17 14:33N 41°09' W 072°14'8 8.5
2015-May-17 13:33N 41°16' W 072°07'6 5.7
2015-May-17 12:33N 41°21' W 072°06'8 8.3
2015-May-17 11:33N 41°14' W 072°09'6 5.8
2015-May-17 10:33N 41°09' W 072°14'4 0.4
2015-May-17 01:34N 41°13' W 072°12'1010.0
2015-May-17 00:33N 41°21' W 072°06'8 8.2
2015-May-16 23:33N 41°14' W 072°10'6 5.7
2015-May-16 22:33N 41°09' W 072°14'9 9.0
2015-May-16 21:34N 41°16' W 072°07'5 5.2
2015-May-16 20:33N 41°21' W 072°06'9 8.8
2015-May-16 19:33N 41°13' W 072°10'5 5.2
2015-May-16 18:33N 41°09' W 072°14'8 8.1
2015-May-16 17:33N 41°16' W 072°08'6 5.9
2015-May-16 16:33N 41°21' W 072°06'9 9.0
2015-May-16 15:33N 41°13' W 072°10'5 4.9
2015-May-16 14:33N 41°09' W 072°14'9 8.8
2015-May-16 13:33N 41°16' W 072°07'6 5.5
2015-May-16 12:33N 41°21' W 072°06'9 8.5
2015-May-16 11:33N 41°14' W 072°10'5 5.4
2015-May-16 10:33N 41°09' W 072°14'0 0.0
2015-May-16 02:12N 41°09' W 072°14'6 9.2
2015-May-16 01:34N 41°14' W 072°10'8 8.0
2015-May-16 00:33N 41°21' W 072°06'8 8.4
2015-May-15 23:33N 41°14' W 072°10'6 5.5
2015-May-15 22:33N 41°09' W 072°14'9 8.6
2015-May-15 21:33N 41°16' W 072°07'6 5.8
2015-May-15 20:33N 41°21' W 072°06'9 8.8
2015-May-15 19:33N 41°13' W 072°10'5 5.2
2015-May-15 18:33N 41°09' W 072°14'8 7.9
2015-May-15 17:33N 41°16' W 072°08'6 6.1
2015-May-15 16:33N 41°21' W 072°06'8 8.5
2015-May-15 15:33N 41°13' W 072°10'6 5.5
2015-May-15 14:33N 41°09' W 072°14'8 8.4
2015-May-15 13:33N 41°16' W 072°08'6 5.6
2015-May-15 12:33N 41°21' W 072°06'9 8.9
2015-May-15 11:33N 41°13' W 072°10'5 5.1
2015-May-15 10:33N 41°09' W 072°14'0 0.0
2015-May-15 01:19N 41°09' W 072°14'810.3
2015-May-15 00:33N 41°16' W 072°08'6 6.2
2015-May-14 23:33N 41°21' W 072°06'0 0.0
2015-May-14 22:33N 41°21' W 072°06'0 0.1
2015-May-14 21:33N 41°21' W 072°05'1 1.5
2015-May-14 20:34N 41°23' W 072°06'  
Track history (hours):
 
Tides and Currents Weather Stations Pressure Air Temp Water Temp Dewpoint Dewpoint Depression Visibility Wind Speed Wind Dir Waves Ship Positions

Susan Ann

Owner: CROSS SOUND FERRY SERVICES INC, NEW LONDON, CT. More information available from US FCC via Universal Licensing System and Coast Guard Vessel Documentation Center.

Last reported at 2015-May-24 14:34 UTC. Time now 2015-May-24 15:08 UTC.
Position N 41°09' W 072°14'.

Length 72 m; draft 4 m.

Type: Passenger vessel. MMSI: 367354350.

Date/timePositionNaut miles runAvg speedWind from/ knotsBaromVisibWave heightAir tempDewpointWater temp
2015-May-24 14:34N 41°09' W 072°14'9 8.6
2015-May-24 13:34N 41°16' W 072°08'5 5.5
2015-May-24 12:34N 41°21' W 072°06'10 9.7
2015-May-24 11:33N 41°13' W 072°11'4 4.3
2015-May-24 10:33N 41°09' W 072°14'0 0.0
2015-May-24 02:19N 41°09' W 072°14'5 6.6
2015-May-24 01:33N 41°13' W 072°10'9 8.9
2015-May-24 00:34N 41°21' W 072°06'8 7.7
2015-May-23 23:33N 41°14' W 072°09'6 6.4
2015-May-23 22:33N 41°09' W 072°14'9 8.9
2015-May-23 21:33N 41°16' W 072°07'5 5.3
2015-May-23 20:33N 41°21' W 072°06'9 9.0
2015-May-23 19:33N 41°13' W 072°10'5 5.0
2015-May-23 18:33N 41°09' W 072°14'9 9.0
2015-May-23 17:33N 41°16' W 072°07'5 5.2
2015-May-23 16:33N 41°21' W 072°06'9 9.3
2015-May-23 15:34N 41°13' W 072°10'5 4.8
2015-May-23 14:34N 41°09' W 072°14'9 9.2
2015-May-23 13:34N 41°16' W 072°06'6 5.6
2015-May-23 12:33N 41°21' W 072°06'8 8.3
2015-May-23 11:33N 41°14' W 072°09'6 5.8
2015-May-23 10:33N 41°09' W 072°14'0 0.0
2015-May-23 02:13N 41°09' W 072°14'6 9.0
2015-May-23 01:33N 41°14' W 072°10'8 7.8
2015-May-23 00:33N 41°21' W 072°06'9 8.8
2015-May-22 23:33N 41°13' W 072°10'5 5.1
2015-May-22 22:33N 41°09' W 072°14'9 9.2
2015-May-22 21:34N 41°16' W 072°07'5 5.1
2015-May-22 20:34N 41°21' W 072°06'9 9.0
2015-May-22 19:34N 41°13' W 072°10'5 5.0
2015-May-22 18:33N 41°09' W 072°14'8 8.2
2015-May-22 17:33N 41°16' W 072°08'6 5.8
2015-May-22 16:33N 41°21' W 072°06'9 9.2
2015-May-22 15:33N 41°13' W 072°11'5 4.7
2015-May-22 14:33N 41°09' W 072°14'9 8.5
2015-May-22 13:33N 41°16' W 072°07'6 5.5
2015-May-22 12:33N 41°21' W 072°06'8 8.1
2015-May-22 11:33N 41°14' W 072°09'6 6.0
2015-May-22 10:33N 41°09' W 072°14'0 0.0
2015-May-22 00:25N 41°09' W 072°14'910.0
2015-May-21 23:33N 41°16' W 072°07'6 5.5
2015-May-21 22:33N 41°21' W 072°06'9 8.6
2015-May-21 21:34N 41°13' W 072°10'5 5.3
2015-May-21 20:33N 41°09' W 072°14'9 9.2
2015-May-21 19:33N 41°16' W 072°07'5 5.0
2015-May-21 18:33N 41°21' W 072°06'9 8.7
2015-May-21 17:34N 41°13' W 072°10'5 5.3
2015-May-21 16:33N 41°09' W 072°14'8 8.4
2015-May-21 15:33N 41°16' W 072°08'6 5.6
2015-May-21 14:33N 41°21' W 072°06'9 8.8
2015-May-21 13:34N 41°13' W 072°10'5 5.3
2015-May-21 12:34N 41°09' W 072°14'8 8.3
2015-May-21 11:33N 41°16' W 072°08'6 5.7
2015-May-21 10:33N 41°21' W 072°06'0 0.0
2015-May-21 09:33N 41°21' W 072°06'0 0.0
2015-May-21 00:21N 41°21' W 072°06'810.6
2015-May-20 23:34N 41°14' W 072°10'6 5.6
2015-May-20 22:33N 41°09' W 072°14'9 8.9
2015-May-20 21:33N 41°16' W 072°07'5 5.4
2015-May-20 20:34N 41°21' W 072°06'10 9.6
2015-May-20 19:33N 41°13' W 072°11'4 4.4
2015-May-20 18:33N 41°09' W 072°14'8 7.7
2015-May-20 17:33N 41°15' W 072°08'6 6.3
2015-May-20 16:34N 41°21' W 072°06'9 9.0
2015-May-20 15:33N 41°13' W 072°11'5 4.9
2015-May-20 14:33N 41°09' W 072°14'8 7.8
2015-May-20 13:33N 41°15' W 072°08'6 6.2
2015-May-20 12:33N 41°21' W 072°06'9 8.7
2015-May-20 11:34N 41°13' W 072°10'5 5.3
2015-May-20 10:33N 41°09' W 072°14'0 0.0
2015-May-20 01:04N 41°09' W 072°14'2 3.0
2015-May-20 00:34N 41°11' W 072°14'1212.3
2015-May-19 23:34N 41°21' W 072°05'0 0.2
2015-May-19 22:33N 41°21' W 072°06'9 8.7
2015-May-19 21:34N 41°13' W 072°10'5 5.4
2015-May-19 20:34N 41°09' W 072°14'8 8.4
2015-May-19 19:33N 41°16' W 072°07'6 5.8
2015-May-19 18:33N 41°21' W 072°06'8 8.4
2015-May-19 17:34N 41°14' W 072°09'6 5.7
2015-May-19 16:33N 41°09' W 072°14'9 9.0
2015-May-19 15:33N 41°16' W 072°07'5 5.2
2015-May-19 14:33N 41°21' W 072°06'9 9.2
2015-May-19 13:33N 41°13' W 072°10'5 4.8
2015-May-19 12:34N 41°09' W 072°14'8 8.2
2015-May-19 11:34N 41°15' W 072°07'6 6.0
2015-May-19 10:33N 41°21' W 072°06'3 0.3
2015-May-19 00:34N 41°18' W 072°05'1111.3
2015-May-18 23:33N 41°09' W 072°14'0 0.0
2015-May-18 22:34N 41°09' W 072°14'8 8.4
2015-May-18 21:33N 41°16' W 072°08'6 5.6
2015-May-18 20:33N 41°21' W 072°06'8 8.5
2015-May-18 19:33N 41°13' W 072°10'6 5.5
2015-May-18 18:33N 41°09' W 072°14'9 9.4
2015-May-18 17:34N 41°17' W 072°07'5 4.8
2015-May-18 16:34N 41°21' W 072°06'8 8.5
2015-May-18 15:34N 41°14' W 072°10'5 5.4
2015-May-18 14:34N 41°09' W 072°14'8 8.2
2015-May-18 13:34N 41°16' W 072°08'6 5.8
2015-May-18 12:33N 41°21' W 072°06'10 9.8
2015-May-18 11:33N 41°12' W 072°11'4 4.2
2015-May-18 10:33N 41°09' W 072°14'0 0.0
2015-May-18 02:15N 41°09' W 072°14'5 8.0
2015-May-18 01:34N 41°14' W 072°11'8 8.4
2015-May-18 00:33N 41°21' W 072°06'9 8.7
2015-May-17 23:34N 41°13' W 072°10'5 5.3
2015-May-17 22:33N 41°09' W 072°14'8 7.6
2015-May-17 21:34N 41°15' W 072°08'6 6.3
2015-May-17 20:33N 41°21' W 072°06'9 8.6
2015-May-17 19:34N 41°13' W 072°10'5 5.5
2015-May-17 18:33N 41°09' W 072°14'9 8.5
2015-May-17 17:33N 41°16' W 072°07'6 5.6
2015-May-17 16:33N 41°21' W 072°06'9 8.7
2015-May-17 15:33N 41°13' W 072°10'5 5.4
2015-May-17 14:33N 41°09' W 072°14'8 8.5
2015-May-17 13:33N 41°16' W 072°07'6 5.7
2015-May-17 12:33N 41°21' W 072°06'8 8.3
2015-May-17 11:33N 41°14' W 072°09'6 5.8
2015-May-17 10:33N 41°09' W 072°14'4 0.4
2015-May-17 01:34N 41°13' W 072°12'1010.0
2015-May-17 00:33N 41°21' W 072°06'8 8.2
2015-May-16 23:33N 41°14' W 072°10'6 5.7
2015-May-16 22:33N 41°09' W 072°14'9 9.0
2015-May-16 21:34N 41°16' W 072°07'5 5.2
2015-May-16 20:33N 41°21' W 072°06'9 8.8
2015-May-16 19:33N 41°13' W 072°10'5 5.2
2015-May-16 18:33N 41°09' W 072°14'8 8.1
2015-May-16 17:33N 41°16' W 072°08'6 5.9
2015-May-16 16:33N 41°21' W 072°06'9 9.0
2015-May-16 15:33N 41°13' W 072°10'5 4.9
2015-May-16 14:33N 41°09' W 072°14'9 8.8
2015-May-16 13:33N 41°16' W 072°07'6 5.5
2015-May-16 12:33N 41°21' W 072°06'9 8.5
2015-May-16 11:33N 41°14' W 072°10'5 5.4
2015-May-16 10:33N 41°09' W 072°14'0 0.0
2015-May-16 02:12N 41°09' W 072°14'6 9.2
2015-May-16 01:34N 41°14' W 072°10'8 8.0
2015-May-16 00:33N 41°21' W 072°06'8 8.4
2015-May-15 23:33N 41°14' W 072°10'6 5.5
2015-May-15 22:33N 41°09' W 072°14'9 8.6
2015-May-15 21:33N 41°16' W 072°07'6 5.8
2015-May-15 20:33N 41°21' W 072°06'9 8.8
2015-May-15 19:33N 41°13' W 072°10'5 5.2
2015-May-15 18:33N 41°09' W 072°14'8 7.9
2015-May-15 17:33N 41°16' W 072°08'6 6.1
2015-May-15 16:33N 41°21' W 072°06'8 8.5
2015-May-15 15:33N 41°13' W 072°10'6 5.5
2015-May-15 14:33N 41°09' W 072°14'8 8.4
2015-May-15 13:33N 41°16' W 072°08'6 5.6
2015-May-15 12:33N 41°21' W 072°06'9 8.9
2015-May-15 11:33N 41°13' W 072°10'5 5.1
2015-May-15 10:33N 41°09' W 072°14'0 0.0
2015-May-15 01:19N 41°09' W 072°14'810.3
2015-May-15 00:33N 41°16' W 072°08'6 6.2
2015-May-14 23:33N 41°21' W 072°06'0 0.0
2015-May-14 22:33N 41°21' W 072°06'0 0.1
2015-May-14 21:33N 41°21' W 072°05'1 1.5
2015-May-14 20:34N 41°23' W 072°06'  

Dump ship's entire track history